Terminal Aerodrome Forecast
Issued by NWS

Home | Current Version | Previous Version | Text Only | Print | Product List | Glossary On
Versions: 1 2 3 4 5 6 7 8 9 10 11 12 13
799
FTPA31 PHFO 062334
TAFHMK
TAF
PHMK 062334Z 0700/0724 27008KT P6SM VCSH SCT023 BKN045
      TEMPO 0700/0701 SHRA BKN022 OVC040
     FM070400 31010KT P6SM VCSH SCT020 BKN040
     FM071000 35015KT 5SM SHRA BKN013 OVC035
     FM071200 01015G23KT P6SM VCSH SCT025 BKN050
     FM072000 01017G25KT P6SM FEW030 SCT050
      AMD NOT SKED=

USA.gov is the U.S. government's official web portal to all federal, state and local government web resources and services.